sensor_id;sensor_type;location;lat;lon;timestamp;P1;durP1;ratioP1;P2;durP2;ratioP2
64595;SDS011;51003;51.628;6.670;2023-03-23T09:47:10;3.93;;;1.50;;
64595;SDS011;51003;51.628;6.670;2023-03-23T09:49:42;3.93;;;1.40;;
64595;SDS011;51003;51.628;6.670;2023-03-23T09:54:39;3.07;;;1.30;;
64595;SDS011;51003;51.628;6.670;2023-03-23T09:57:17;3.63;;;1.30;;
64595;SDS011;51003;51.628;6.670;2023-03-23T10:02:46;1.87;;;1.30;;
64595;SDS011;51003;51.628;6.670;2023-03-23T10:05:33;1.30;;;0.90;;
64595;SDS011;51003;51.628;6.670;2023-03-23T10:08:09;2.43;;;1.20;;
64595;SDS011;51003;51.628;6.670;2023-03-23T10:13:18;1.10;;;1.00;;
64595;SDS011;51003;51.628;6.670;2023-03-23T10:15:50;1.83;;;1.20;;
64595;SDS011;51003;51.628;6.670;2023-03-23T10:18:17;1.27;;;0.97;;
64595;SDS011;51003;51.628;6.670;2023-03-23T10:24:10;1.83;;;1.17;;
64595;SDS011;51003;51.628;6.670;2023-03-23T10:29:31;5.13;;;1.30;;
64595;SDS011;51003;51.628;6.670;2023-03-23T11:02:25;2.43;;;1.50;;
64595;SDS011;51003;51.628;6.670;2023-03-23T11:05:02;2.80;;;1.37;;
64595;SDS011;51003;51.628;6.670;2023-03-23T11:07:32;1.50;;;1.10;;
64595;SDS011;51003;51.628;6.670;2023-03-23T11:10:05;1.27;;;1.17;;
64595;SDS011;51003;51.628;6.670;2023-03-23T11:12:43;1.70;;;1.53;;
64595;SDS011;51003;51.628;6.670;2023-03-23T11:15:15;2.03;;;1.40;;
64595;SDS011;51003;51.628;6.670;2023-03-23T11:29:13;1.77;;;0.90;;
64595;SDS011;51003;51.628;6.670;2023-03-23T11:31:44;1.73;;;1.63;;
64595;SDS011;51003;51.628;6.670;2023-03-23T11:36:59;2.20;;;1.17;;
64595;SDS011;51003;51.628;6.670;2023-03-23T11:39:30;3.40;;;1.20;;
64595;SDS011;51003;51.628;6.670;2023-03-23T11:41:58;1.43;;;1.20;;
64595;SDS011;51003;51.628;6.670;2023-03-23T11:44:31;2.57;;;1.20;;
64595;SDS011;51003;51.628;6.670;2023-03-23T11:47:02;1.20;;;1.10;;
64595;SDS011;51003;51.628;6.670;2023-03-23T11:52:51;1.10;;;1.00;;
64595;SDS011;51003;51.628;6.670;2023-03-23T11:58:12;1.30;;;1.20;;
64595;SDS011;51003;51.628;6.670;2023-03-23T12:00:50;1.30;;;1.00;;
64595;SDS011;51003;51.628;6.670;2023-03-23T12:06:09;1.20;;;1.10;;
64595;SDS011;51003;51.628;6.670;2023-03-23T12:11:20;2.30;;;1.03;;
64595;SDS011;51003;51.628;6.670;2023-03-23T12:24:35;1.53;;;1.20;;
64595;SDS011;51003;51.628;6.670;2023-03-23T12:46:00;2.30;;;1.43;;
64595;SDS011;51003;51.628;6.670;2023-03-23T12:48:42;1.83;;;1.20;;
64595;SDS011;51003;51.628;6.670;2023-03-23T12:53:56;1.83;;;1.37;;
64595;SDS011;51003;51.628;6.670;2023-03-23T12:56:26;1.63;;;1.53;;
64595;SDS011;51003;51.628;6.670;2023-03-23T13:01:32;1.70;;;1.60;;
64595;SDS011;51003;51.628;6.670;2023-03-23T13:06:36;2.03;;;1.60;;
64595;SDS011;51003;51.628;6.670;2023-03-23T13:11:54;3.00;;;1.57;;
64595;SDS011;51003;51.628;6.670;2023-03-23T13:17:15;1.97;;;1.80;;
64595;SDS011;51003;51.628;6.670;2023-03-23T13:28:18;2.20;;;1.97;;
64595;SDS011;51003;51.628;6.670;2023-03-23T13:33:38;3.50;;;2.00;;
64595;SDS011;51003;51.628;6.670;2023-03-23T13:36:07;4.67;;;2.10;;
64595;SDS011;51003;51.628;6.670;2023-03-23T13:38:34;2.27;;;2.07;;
64595;SDS011;51003;51.628;6.670;2023-03-23T13:41:05;3.60;;;1.97;;
64595;SDS011;51003;51.628;6.670;2023-03-23T13:43:33;2.43;;;2.13;;
64595;SDS011;51003;51.628;6.670;2023-03-23T13:56:40;3.53;;;2.47;;
64595;SDS011;51003;51.628;6.670;2023-03-23T13:59:16;2.53;;;2.33;;
64595;SDS011;51003;51.628;6.670;2023-03-23T14:01:56;3.60;;;2.37;;
64595;SDS011;51003;51.628;6.670;2023-03-23T14:04:42;3.70;;;2.30;;
64595;SDS011;51003;51.628;6.670;2023-03-23T14:07:15;3.10;;;2.33;;
64595;SDS011;51003;51.628;6.670;2023-03-23T14:09:43;3.13;;;2.33;;
64595;SDS011;51003;51.628;6.670;2023-03-23T14:12:22;2.60;;;2.40;;
64595;SDS011;51003;51.628;6.670;2023-03-23T14:14:55;3.50;;;2.50;;
64595;SDS011;51003;51.628;6.670;2023-03-23T14:17:26;2.27;;;2.07;;
64595;SDS011;51003;51.628;6.670;2023-03-23T14:19:57;3.77;;;2.27;;
64595;SDS011;51003;51.628;6.670;2023-03-23T14:24:49;4.10;;;2.10;;
64595;SDS011;51003;51.628;6.670;2023-03-23T14:27:21;3.57;;;2.50;;
64595;SDS011;51003;51.628;6.670;2023-03-23T14:29:57;2.37;;;2.10;;
64595;SDS011;51003;51.628;6.670;2023-03-23T14:32:31;2.60;;;2.50;;
64595;SDS011;51003;51.628;6.670;2023-03-23T14:34:57;4.23;;;2.37;;
64595;SDS011;51003;51.628;6.670;2023-03-23T14:37:25;4.53;;;2.80;;
64595;SDS011;51003;51.628;6.670;2023-03-23T14:39:52;4.10;;;2.20;;
64595;SDS011;51003;51.628;6.670;2023-03-23T14:42:19;3.63;;;2.27;;
64595;SDS011;51003;51.628;6.670;2023-03-23T14:44:52;6.30;;;2.03;;
64595;SDS011;51003;51.628;6.670;2023-03-23T14:49:58;4.40;;;2.17;;
64595;SDS011;51003;51.628;6.670;2023-03-23T14:52:29;2.10;;;2.00;;
64595;SDS011;51003;51.628;6.670;2023-03-23T14:55:31;3.90;;;2.70;;
64595;SDS011;51003;51.628;6.670;2023-03-23T14:57:53;4.57;;;2.60;;
64595;SDS011;51003;51.628;6.670;2023-03-23T15:00:28;3.73;;;2.40;;
64595;SDS011;51003;51.628;6.670;2023-03-23T15:02:59;3.60;;;2.30;;
64595;SDS011;51003;51.628;6.670;2023-03-23T15:05:30;5.33;;;2.50;;
64595;SDS011;51003;51.628;6.670;2023-03-23T15:08:00;3.10;;;2.30;;
64595;SDS011;51003;51.628;6.670;2023-03-23T15:10:30;9.30;;;3.20;;
64595;SDS011;51003;51.628;6.670;2023-03-23T15:12:56;3.30;;;2.20;;
64595;SDS011;51003;51.628;6.670;2023-03-23T15:17:58;3.57;;;2.43;;
64595;SDS011;51003;51.628;6.670;2023-03-23T15:20:27;4.83;;;2.73;;
64595;SDS011;51003;51.628;6.670;2023-03-23T15:22:55;5.80;;;2.40;;
64595;SDS011;51003;51.628;6.670;2023-03-23T15:33:00;2.50;;;2.23;;
64595;SDS011;51003;51.628;6.670;2023-03-23T15:35:32;3.20;;;2.20;;
64595;SDS011;51003;51.628;6.670;2023-03-23T15:38:03;3.80;;;2.00;;
64595;SDS011;51003;51.628;6.670;2023-03-23T15:40:34;7.20;;;2.67;;
64595;SDS011;51003;51.628;6.670;2023-03-23T15:48:45;2.47;;;1.67;;
64595;SDS011;51003;51.628;6.670;2023-03-23T15:51:11;2.33;;;1.60;;
64595;SDS011;51003;51.628;6.670;2023-03-23T15:53:37;6.30;;;1.80;;
64595;SDS011;51003;51.628;6.670;2023-03-23T15:56:04;3.30;;;1.60;;
64595;SDS011;51003;51.628;6.670;2023-03-23T15:58:31;2.60;;;1.93;;
64595;SDS011;51003;51.628;6.670;2023-03-23T16:00:57;6.30;;;2.40;;
64595;SDS011;51003;51.628;6.670;2023-03-23T16:03:45;2.60;;;2.20;;
64595;SDS011;51003;51.628;6.670;2023-03-23T16:06:13;5.67;;;2.40;;
64595;SDS011;51003;51.628;6.670;2023-03-23T16:08:40;8.23;;;3.00;;
64595;SDS011;51003;51.628;6.670;2023-03-23T16:11:09;7.93;;;3.93;;
64595;SDS011;51003;51.628;6.670;2023-03-23T16:13:36;9.70;;;3.70;;
64595;SDS011;51003;51.628;6.670;2023-03-23T16:16:01;2.70;;;2.00;;
64595;SDS011;51003;51.628;6.670;2023-03-23T16:18:29;4.33;;;2.00;;
64595;SDS011;51003;51.628;6.670;2023-03-23T16:20:55;7.30;;;2.30;;
64595;SDS011;51003;51.628;6.670;2023-03-23T16:23:21;3.67;;;2.03;;
64595;SDS011;51003;51.628;6.670;2023-03-23T16:25:46;4.97;;;2.33;;
64595;SDS011;51003;51.628;6.670;2023-03-23T16:28:12;3.50;;;2.07;;
64595;SDS011;51003;51.628;6.670;2023-03-23T16:30:38;3.60;;;2.17;;
64595;SDS011;51003;51.628;6.670;2023-03-23T16:33:04;5.37;;;2.20;;
64595;SDS011;51003;51.628;6.670;2023-03-23T16:35:29;3.93;;;2.10;;
64595;SDS011;51003;51.628;6.670;2023-03-23T16:37:55;5.30;;;2.37;;
64595;SDS011;51003;51.628;6.670;2023-03-23T16:40:21;4.83;;;2.13;;
64595;SDS011;51003;51.628;6.670;2023-03-23T16:42:47;6.10;;;2.70;;
64595;SDS011;51003;51.628;6.670;2023-03-23T16:45:14;3.73;;;2.50;;
64595;SDS011;51003;51.628;6.670;2023-03-23T16:47:40;4.20;;;2.90;;
64595;SDS011;51003;51.628;6.670;2023-03-23T16:50:06;5.60;;;3.17;;
64595;SDS011;51003;51.628;6.670;2023-03-23T16:52:35;5.47;;;3.73;;
64595;SDS011;51003;51.628;6.670;2023-03-23T16:55:01;4.30;;;2.70;;
64595;SDS011;51003;51.628;6.670;2023-03-23T16:57:26;4.67;;;3.23;;
64595;SDS011;51003;51.628;6.670;2023-03-23T16:59:52;2.83;;;2.30;;
64595;SDS011;51003;51.628;6.670;2023-03-23T17:02:18;6.07;;;2.60;;
64595;SDS011;51003;51.628;6.670;2023-03-23T17:04:43;3.47;;;2.27;;
64595;SDS011;51003;51.628;6.670;2023-03-23T17:07:10;10.40;;;3.60;;
64595;SDS011;51003;51.628;6.670;2023-03-23T17:09:36;5.17;;;2.77;;
64595;SDS011;51003;51.628;6.670;2023-03-23T17:12:01;7.63;;;2.50;;
64595;SDS011;51003;51.628;6.670;2023-03-23T17:14:27;4.13;;;2.20;;
64595;SDS011;51003;51.628;6.670;2023-03-23T17:16:52;4.17;;;2.20;;
64595;SDS011;51003;51.628;6.670;2023-03-23T17:19:17;4.20;;;2.63;;
64595;SDS011;51003;51.628;6.670;2023-03-23T17:21:43;5.20;;;2.40;;
64595;SDS011;51003;51.628;6.670;2023-03-23T17:24:08;3.70;;;2.43;;
64595;SDS011;51003;51.628;6.670;2023-03-23T17:26:34;7.73;;;2.93;;
64595;SDS011;51003;51.628;6.670;2023-03-23T17:29:00;3.80;;;2.90;;
64595;SDS011;51003;51.628;6.670;2023-03-23T17:31:26;5.80;;;2.87;;
64595;SDS011;51003;51.628;6.670;2023-03-23T17:33:51;3.83;;;2.93;;
64595;SDS011;51003;51.628;6.670;2023-03-23T17:36:17;5.37;;;3.53;;
64595;SDS011;51003;51.628;6.670;2023-03-23T17:38:43;7.50;;;4.57;;
64595;SDS011;51003;51.628;6.670;2023-03-23T17:41:09;11.00;;;3.73;;
64595;SDS011;51003;51.628;6.670;2023-03-23T17:43:35;9.97;;;2.80;;
64595;SDS011;51003;51.628;6.670;2023-03-23T17:46:03;4.80;;;2.90;;
64595;SDS011;51003;51.628;6.670;2023-03-23T17:48:29;3.70;;;3.30;;
64595;SDS011;51003;51.628;6.670;2023-03-23T17:50:54;6.07;;;3.00;;
64595;SDS011;51003;51.628;6.670;2023-03-23T17:53:22;6.03;;;2.70;;
64595;SDS011;51003;51.628;6.670;2023-03-23T17:55:49;5.37;;;2.90;;
64595;SDS011;51003;51.628;6.670;2023-03-23T17:58:15;7.10;;;3.10;;
64595;SDS011;51003;51.628;6.670;2023-03-23T18:00:40;7.43;;;2.90;;
64595;SDS011;51003;51.628;6.670;2023-03-23T18:03:06;7.07;;;2.90;;
64595;SDS011;51003;51.628;6.670;2023-03-23T18:05:31;5.77;;;2.90;;
64595;SDS011;51003;51.628;6.670;2023-03-23T18:07:58;4.23;;;2.50;;
64595;SDS011;51003;51.628;6.670;2023-03-23T18:10:23;3.03;;;2.07;;
64595;SDS011;51003;51.628;6.670;2023-03-23T18:12:49;3.27;;;2.50;;
64595;SDS011;51003;51.628;6.670;2023-03-23T18:15:15;6.77;;;2.70;;
64595;SDS011;51003;51.628;6.670;2023-03-23T18:17:40;3.07;;;2.70;;
64595;SDS011;51003;51.628;6.670;2023-03-23T18:20:09;8.43;;;3.63;;
64595;SDS011;51003;51.628;6.670;2023-03-23T18:22:35;4.00;;;2.70;;
64595;SDS011;51003;51.628;6.670;2023-03-23T18:25:01;6.03;;;3.37;;
64595;SDS011;51003;51.628;6.670;2023-03-23T18:27:28;6.03;;;3.07;;
64595;SDS011;51003;51.628;6.670;2023-03-23T18:29:53;7.20;;;3.50;;
64595;SDS011;51003;51.628;6.670;2023-03-23T19:09:36;3.97;;;2.57;;
64595;SDS011;51003;51.628;6.670;2023-03-23T21:37:57;3.30;;;2.17;;
64595;SDS011;51003;51.628;6.670;2023-03-23T21:40:23;2.30;;;2.10;;
64595;SDS011;51003;51.628;6.670;2023-03-23T22:03:33;5.07;;;2.73;;
64595;SDS011;51003;51.628;6.670;2023-03-23T22:06:05;4.00;;;2.37;;
64595;SDS011;51003;51.628;6.670;2023-03-23T22:08:33;3.33;;;2.43;;
64595;SDS011;51003;51.628;6.670;2023-03-23T22:10:59;5.60;;;2.40;;
64595;SDS011;51003;51.628;6.670;2023-03-23T22:13:31;3.20;;;2.30;;
64595;SDS011;51003;51.628;6.670;2023-03-23T22:15:58;5.60;;;2.33;;
64595;SDS011;51003;51.628;6.670;2023-03-23T22:18:25;3.30;;;2.50;;
64595;SDS011;51003;51.628;6.670;2023-03-23T22:20:50;6.73;;;2.57;;
64595;SDS011;51003;51.628;6.670;2023-03-23T22:23:16;4.50;;;2.70;;
64595;SDS011;51003;51.628;6.670;2023-03-23T22:25:42;4.50;;;2.70;;
64595;SDS011;51003;51.628;6.670;2023-03-23T22:28:08;3.10;;;2.10;;
64595;SDS011;51003;51.628;6.670;2023-03-23T22:30:34;4.03;;;2.40;;
64595;SDS011;51003;51.628;6.670;2023-03-23T22:33:00;6.50;;;4.00;;
64595;SDS011;51003;51.628;6.670;2023-03-23T22:41:34;3.40;;;2.30;;
64595;SDS011;51003;51.628;6.670;2023-03-23T22:44:02;3.60;;;2.37;;
64595;SDS011;51003;51.628;6.670;2023-03-23T22:46:29;3.37;;;2.20;;
64595;SDS011;51003;51.628;6.670;2023-03-23T22:51:58;2.83;;;2.30;;
64595;SDS011;51003;51.628;6.670;2023-03-23T22:54:23;4.33;;;2.50;;
64595;SDS011;51003;51.628;6.670;2023-03-23T22:56:50;2.60;;;2.23;;
64595;SDS011;51003;51.628;6.670;2023-03-23T22:59:15;4.60;;;2.70;;
64595;SDS011;51003;51.628;6.670;2023-03-23T23:01:43;4.70;;;2.17;;
64595;SDS011;51003;51.628;6.670;2023-03-23T23:04:09;4.77;;;2.63;;
64595;SDS011;51003;51.628;6.670;2023-03-23T23:06:35;2.53;;;2.07;;
64595;SDS011;51003;51.628;6.670;2023-03-23T23:09:01;7.30;;;2.53;;
64595;SDS011;51003;51.628;6.670;2023-03-23T23:11:27;5.00;;;2.80;;
64595;SDS011;51003;51.628;6.670;2023-03-23T23:13:53;2.97;;;2.47;;
64595;SDS011;51003;51.628;6.670;2023-03-23T23:16:19;5.73;;;2.40;;
64595;SDS011;51003;51.628;6.670;2023-03-23T23:18:46;3.60;;;2.73;;
64595;SDS011;51003;51.628;6.670;2023-03-23T23:30:43;3.10;;;2.57;;
64595;SDS011;51003;51.628;6.670;2023-03-23T23:39:43;2.83;;;2.23;;
64595;SDS011;51003;51.628;6.670;2023-03-23T23:42:09;3.20;;;2.60;;
64595;SDS011;51003;51.628;6.670;2023-03-23T23:44:36;5.00;;;2.37;;
64595;SDS011;51003;51.628;6.670;2023-03-23T23:50:14;4.07;;;2.50;;
64595;SDS011;51003;51.628;6.670;2023-03-23T23:52:41;2.60;;;2.40;;
64595;SDS011;51003;51.628;6.670;2023-03-23T23:55:08;2.33;;;2.10;;
64595;SDS011;51003;51.628;6.670;2023-03-23T23:57:36;4.47;;;2.43;;
